createdAt,value
2022-09-10T00:00:47.264Z,2.17
2022-09-10T00:03:50.015Z,2.10
2022-09-10T00:06:51.875Z,1.60
2022-09-10T00:09:53.511Z,1.70
2022-09-10T00:12:55.712Z,1.67
2022-09-10T00:15:59.563Z,1.60
2022-09-10T00:19:01.917Z,2.07
2022-09-10T00:22:04.021Z,1.60
2022-09-10T00:25:08.365Z,1.93
2022-09-10T00:28:10.255Z,2.17
2022-09-10T00:31:13.274Z,1.50
2022-09-10T00:34:15.318Z,2.07
2022-09-10T00:37:17.775Z,1.50
2022-09-10T00:40:19.935Z,1.57
2022-09-10T00:43:22.413Z,1.37
2022-09-10T00:46:30.792Z,1.67
2022-09-10T00:49:37.278Z,2.13
2022-09-10T00:52:40.058Z,1.70
2022-09-10T00:55:46.894Z,1.60
2022-09-10T00:58:49.229Z,1.57
2022-09-10T01:01:51.218Z,1.90
2022-09-10T01:04:55.170Z,1.73
2022-09-10T01:07:57.961Z,1.37
2022-09-10T01:11:26.491Z,1.60
2022-09-10T01:14:57.151Z,1.33
2022-09-10T01:18:11.146Z,1.40
2022-09-10T01:21:28.141Z,2.27
2022-09-10T01:25:27.327Z,1.50
2022-09-10T01:29:02.286Z,2.50
2022-09-10T01:32:27.436Z,2.60
2022-09-10T01:35:36.299Z,3.40
2022-09-10T01:38:41.804Z,4.13
2022-09-10T01:41:44.171Z,3.87
2022-09-10T01:44:51.021Z,4.63
2022-09-10T01:48:12.771Z,3.80
2022-09-10T01:51:34.364Z,3.07
2022-09-10T01:55:05.253Z,3.70
2022-09-10T01:58:26.332Z,3.10
2022-09-10T02:01:49.135Z,3.10
2022-09-10T02:04:53.507Z,3.03
2022-09-10T02:12:43.306Z,3.37
2022-09-10T02:16:08.233Z,3.73
2022-09-10T02:19:17.441Z,2.53
2022-09-10T02:22:25.389Z,3.13
2022-09-10T02:25:32.475Z,2.87
2022-09-10T02:28:37.328Z,3.23
2022-09-10T02:31:39.444Z,3.40
2022-09-10T02:35:09.511Z,3.37
2022-09-10T02:42:59.447Z,3.40
2022-09-10T02:46:03.557Z,3.37
2022-09-10T02:50:02.120Z,3.20
2022-09-10T02:53:03.947Z,3.30
2022-09-10T02:56:07.712Z,3.93
2022-09-10T02:59:11.322Z,3.20
2022-09-10T03:02:13.386Z,3.47
2022-09-10T03:05:15.342Z,3.20
2022-09-10T03:08:17.109Z,3.93
2022-09-10T03:11:23.879Z,3.03
2022-09-10T03:14:25.805Z,3.57
2022-09-10T03:17:27.483Z,3.40
2022-09-10T03:20:29.605Z,4.10
2022-09-10T03:23:31.267Z,4.03
2022-09-10T03:31:52.419Z,4.23
2022-09-10T03:39:18.895Z,4.47
2022-09-10T03:42:20.919Z,5.07
2022-09-10T03:45:22.873Z,4.27
2022-09-10T03:48:24.760Z,4.07
2022-09-10T03:51:27.371Z,3.70
2022-09-10T03:54:30.111Z,3.40
2022-09-10T03:57:31.827Z,3.60
2022-09-10T04:00:34.523Z,3.00
2022-09-10T04:03:37.067Z,2.97
2022-09-10T04:06:40.437Z,3.20
2022-09-10T04:09:42.071Z,3.20
2022-09-10T04:12:44.199Z,3.30
2022-09-10T04:15:46.098Z,3.57
2022-09-10T04:18:48.241Z,3.60
2022-09-10T04:21:52.841Z,3.47
2022-09-10T04:24:55.792Z,3.17
2022-09-10T04:27:57.499Z,3.10
2022-09-10T04:30:59.606Z,1.90
2022-09-10T04:34:02.003Z,2.47
2022-09-10T04:37:06.023Z,1.93
2022-09-10T04:40:09.364Z,2.00
2022-09-10T04:43:12.136Z,1.90
2022-09-10T04:46:17.492Z,1.93
2022-09-10T04:49:19.599Z,1.87
2022-09-10T04:52:22.660Z,1.77
2022-09-10T04:55:26.017Z,1.80
2022-09-10T04:58:27.833Z,1.97
2022-09-10T05:01:29.551Z,2.03
2022-09-10T05:04:31.257Z,2.20
2022-09-10T05:07:34.453Z,2.13
2022-09-10T05:10:38.149Z,2.10
2022-09-10T05:13:42.974Z,2.50
2022-09-10T05:16:47.309Z,2.73
2022-09-10T05:19:49.745Z,3.10
2022-09-10T05:22:55.150Z,2.37
2022-09-10T05:25:58.212Z,2.90
2022-09-10T05:29:01.812Z,3.20
2022-09-10T05:32:03.537Z,3.50
2022-09-10T05:35:06.457Z,4.00
2022-09-10T05:38:12.235Z,3.57
2022-09-10T05:41:15.343Z,4.13
2022-09-10T05:44:23.271Z,4.70
2022-09-10T05:47:24.987Z,4.47
2022-09-10T05:50:28.920Z,4.30
2022-09-10T05:53:31.051Z,4.10
2022-09-10T05:56:34.701Z,4.20
2022-09-10T05:59:36.885Z,4.43
2022-09-10T06:02:38.808Z,3.93
2022-09-10T06:05:41.233Z,3.60
2022-09-10T06:08:43.316Z,4.33
2022-09-10T06:11:54.965Z,4.27
2022-09-10T06:14:57.763Z,3.80
2022-09-10T06:17:59.585Z,4.30
2022-09-10T06:21:06.708Z,4.53
2022-09-10T06:24:08.724Z,4.30
2022-09-10T06:27:12.965Z,4.80
2022-09-10T06:30:15.449Z,4.20
2022-09-10T06:33:21.189Z,4.83
2022-09-10T06:36:23.433Z,5.43
2022-09-10T06:39:28.782Z,4.50
2022-09-10T06:42:33.882Z,4.00
2022-09-10T06:46:05.143Z,5.83
2022-09-10T06:49:21.664Z,5.73
2022-09-10T06:52:24.544Z,5.17
2022-09-10T06:55:35.288Z,5.80
2022-09-10T06:58:39.183Z,6.20
2022-09-10T07:01:41.637Z,6.50
2022-09-10T07:04:43.591Z,5.50
2022-09-10T07:07:46.298Z,6.60
2022-09-10T07:10:49.111Z,6.57
2022-09-10T07:13:52.481Z,6.13
2022-09-10T07:16:57.445Z,6.80
2022-09-10T07:20:02.966Z,7.60
2022-09-10T07:23:31.167Z,6.70
2022-09-10T07:26:33.233Z,6.40
2022-09-10T07:29:36.574Z,6.17
2022-09-10T07:32:40.446Z,5.47
2022-09-10T07:35:50.028Z,6.00
2022-09-10T07:38:55.581Z,5.70
2022-09-10T07:41:57.444Z,5.07
2022-09-10T07:45:02.907Z,5.63
2022-09-10T07:48:05.223Z,6.30
2022-09-10T07:51:11.671Z,6.03
2022-09-10T07:54:17.153Z,6.70
2022-09-10T07:57:24.453Z,6.97
2022-09-10T08:00:26.333Z,7.03
2022-09-10T08:03:32.566Z,6.87
2022-09-10T08:06:34.410Z,6.47
2022-09-10T08:09:37.403Z,6.87
2022-09-10T08:12:40.863Z,6.70
2022-09-10T08:15:44.513Z,7.37
2022-09-10T08:18:47.732Z,7.33
2022-09-10T08:21:51.360Z,7.97
2022-09-10T08:25:01.282Z,7.20
2022-09-10T08:28:05.536Z,7.50
2022-09-10T08:31:09.742Z,7.47
2022-09-10T08:34:18.016Z,7.87
2022-09-10T08:37:27.164Z,7.40
2022-09-10T08:40:30.027Z,8.10
2022-09-10T08:43:41.744Z,8.27
2022-09-10T08:46:55.536Z,7.80
2022-09-10T08:50:11.549Z,7.23
2022-09-10T08:53:22.932Z,7.30
2022-09-10T08:56:27.018Z,8.60
2022-09-10T08:59:33.356Z,6.87
2022-09-10T09:02:52.242Z,7.07
2022-09-10T09:06:02.607Z,7.67
2022-09-10T09:09:17.872Z,7.77
2022-09-10T09:12:39.107Z,6.83
2022-09-10T09:15:46.719Z,7.10
2022-09-10T09:19:23.646Z,7.10
2022-09-10T09:22:41.837Z,6.43
2022-09-10T09:26:15.848Z,7.40
2022-09-10T09:29:30.665Z,6.87
2022-09-10T09:32:40.041Z,7.93
2022-09-10T09:35:58.508Z,7.10
2022-09-10T09:39:12.920Z,7.37
2022-09-10T09:42:24.737Z,7.47
2022-09-10T09:45:39.608Z,7.83
2022-09-10T09:48:42.191Z,7.83
2022-09-10T09:51:47.486Z,7.80
2022-09-10T09:55:13.743Z,8.33
2022-09-10T09:58:24.042Z,8.50
2022-09-10T10:01:26.866Z,6.90
2022-09-10T10:04:33.745Z,7.40
2022-09-10T10:07:36.423Z,7.83
2022-09-10T10:10:38.131Z,7.10
2022-09-10T10:13:45.705Z,7.23
2022-09-10T10:16:48.536Z,7.10
2022-09-10T10:19:58.874Z,5.87
2022-09-10T10:23:28.078Z,5.57
2022-09-10T10:26:36.184Z,5.90
2022-09-10T10:29:39.241Z,6.20
2022-09-10T10:33:02.564Z,5.13
2022-09-10T10:36:18.947Z,5.13
2022-09-10T10:39:46.188Z,7.63
2022-09-10T10:42:55.491Z,6.10
2022-09-10T10:46:09.919Z,5.80
2022-09-10T10:49:16.349Z,6.70
2022-09-10T10:52:30.655Z,6.27
2022-09-10T10:56:04.386Z,5.83
2022-09-10T10:59:24.137Z,5.17
2022-09-10T11:02:54.348Z,5.70
2022-09-10T11:06:07.732Z,5.67
2022-09-10T11:09:26.983Z,5.03
2022-09-10T11:12:43.473Z,5.50
2022-09-10T11:15:48.712Z,5.00
2022-09-10T11:18:57.939Z,5.00
2022-09-10T11:22:21.436Z,3.50
2022-09-10T11:25:26.844Z,2.77
2022-09-10T11:28:34.363Z,3.13
2022-09-10T11:31:42.023Z,3.37
2022-09-10T11:35:03.624Z,2.93
2022-09-10T11:38:32.842Z,4.33
2022-09-10T11:41:42.042Z,4.13
2022-09-10T11:45:04.842Z,3.70
2022-09-10T11:48:18.349Z,3.37
2022-09-10T11:51:30.822Z,3.20
2022-09-10T11:54:35.409Z,3.70
2022-09-10T11:57:51.166Z,3.53
2022-09-10T12:01:08.545Z,4.83
2022-09-10T12:04:40.412Z,5.07
2022-09-10T12:08:04.223Z,4.67
2022-09-10T12:11:29.484Z,5.97
2022-09-10T12:14:31.283Z,6.33
2022-09-10T12:17:38.681Z,6.13
2022-09-10T12:20:56.981Z,7.43
2022-09-10T12:24:20.396Z,6.90
2022-09-10T12:27:43.688Z,7.50
2022-09-10T12:30:46.245Z,8.83
2022-09-10T12:33:47.882Z,7.93
2022-09-10T12:36:49.494Z,8.60
2022-09-10T12:40:26.234Z,9.67
2022-09-10T12:43:40.244Z,9.80
2022-09-10T12:46:44.899Z,10.27
2022-09-10T12:49:50.345Z,11.47
2022-09-10T12:52:51.972Z,11.03
2022-09-10T12:56:00.025Z,10.70
2022-09-10T12:59:24.269Z,10.33
2022-09-10T13:02:37.111Z,9.73
2022-09-10T13:05:53.208Z,8.13
2022-09-10T13:08:55.113Z,7.13
2022-09-10T13:12:03.400Z,7.27
2022-09-10T13:15:05.725Z,7.07
2022-09-10T13:18:23.108Z,7.57
2022-09-10T13:21:24.722Z,7.60
2022-09-10T13:24:36.036Z,6.67
2022-09-10T13:27:40.904Z,7.57
2022-09-10T13:30:43.375Z,7.20
2022-09-10T13:33:51.994Z,7.10
2022-09-10T13:37:02.303Z,6.60
2022-09-10T13:40:43.199Z,6.73
2022-09-10T13:44:01.282Z,7.47
2022-09-10T13:47:14.791Z,8.73
2022-09-10T13:50:26.260Z,8.50
2022-09-10T13:53:29.689Z,8.60
2022-09-10T13:56:32.191Z,6.93
2022-09-10T13:59:35.465Z,8.03
2022-09-10T14:02:49.195Z,7.27
2022-09-10T14:05:55.837Z,7.50
2022-09-10T14:09:05.032Z,7.10
2022-09-10T14:12:08.324Z,7.43
2022-09-10T14:15:16.973Z,7.40
2022-09-10T14:18:20.552Z,5.63
2022-09-10T14:21:27.389Z,5.80
2022-09-10T14:24:44.357Z,4.87
2022-09-10T14:27:46.295Z,5.83
2022-09-10T14:30:50.462Z,4.93
2022-09-10T14:33:57.152Z,5.13
2022-09-10T14:37:00.979Z,6.00
2022-09-10T14:40:17.302Z,5.63
2022-09-10T14:43:40.146Z,5.77
2022-09-10T14:46:49.927Z,5.60
2022-09-10T14:49:52.547Z,5.13
2022-09-10T14:52:55.044Z,5.97
2022-09-10T14:55:56.738Z,4.87
2022-09-10T14:59:20.067Z,5.13
2022-09-10T15:02:27.191Z,3.70
2022-09-10T15:05:29.620Z,3.73
2022-09-10T15:08:31.274Z,3.23
2022-09-10T15:11:33.061Z,2.50
2022-09-10T15:14:35.595Z,3.10
2022-09-10T15:17:37.285Z,2.77
2022-09-10T15:20:38.943Z,3.17
2022-09-10T15:23:42.009Z,2.80
2022-09-10T15:26:43.821Z,2.30
2022-09-10T15:29:45.483Z,2.13
2022-09-10T15:32:47.129Z,2.70
2022-09-10T15:35:48.773Z,2.30
2022-09-10T15:38:51.431Z,2.80
2022-09-10T15:41:53.138Z,2.37
2022-09-10T15:44:54.787Z,2.90
2022-09-10T15:47:56.444Z,3.03
2022-09-10T15:51:00.884Z,2.50
2022-09-10T15:54:05.309Z,2.40
2022-09-10T15:57:07.247Z,2.20
2022-09-10T16:00:09.663Z,2.97
2022-09-10T16:03:11.303Z,2.57
2022-09-10T16:06:14.284Z,4.33
2022-09-10T16:09:16.009Z,5.03
2022-09-10T16:12:17.786Z,5.57
2022-09-10T16:15:19.428Z,6.43
2022-09-10T16:18:21.098Z,7.90
2022-09-10T16:21:26.087Z,8.47
2022-09-10T16:24:27.735Z,8.30
2022-09-10T16:27:29.494Z,10.20
2022-09-10T16:30:31.631Z,9.67
2022-09-10T16:33:46.238Z,10.10
2022-09-10T16:36:49.203Z,10.83
2022-09-10T16:39:50.840Z,11.60
2022-09-10T16:42:53.304Z,11.10
2022-09-10T16:45:56.467Z,12.03
2022-09-10T16:48:59.216Z,11.77
2022-09-10T16:52:00.878Z,10.33
2022-09-10T16:55:04.299Z,11.40
2022-09-10T16:58:05.943Z,11.77
2022-09-10T17:01:09.647Z,11.93
2022-09-10T17:04:19.217Z,10.30
2022-09-10T17:07:22.261Z,11.90
2022-09-10T17:10:25.232Z,11.53
2022-09-10T17:13:26.872Z,10.87
2022-09-10T17:16:37.604Z,9.93
2022-09-10T17:19:39.304Z,10.80
2022-09-10T17:22:40.935Z,9.60
2022-09-10T17:25:42.569Z,10.00
2022-09-10T17:28:44.203Z,9.83
2022-09-10T17:31:49.121Z,9.20
2022-09-10T17:34:51.436Z,10.13
2022-09-10T17:37:53.108Z,11.10
2022-09-10T17:41:01.364Z,11.43
2022-09-10T17:44:03.452Z,10.40
2022-09-10T17:47:05.245Z,10.73
2022-09-10T17:50:07.500Z,10.53
2022-09-10T17:53:09.128Z,11.03
2022-09-10T17:56:14.675Z,10.20
2022-09-10T17:59:16.348Z,11.13
2022-09-10T18:02:18.885Z,10.83
2022-09-10T18:05:21.908Z,11.17
2022-09-10T18:08:23.757Z,11.50
2022-09-10T18:11:28.132Z,10.40
2022-09-10T18:14:31.027Z,10.80
2022-09-10T18:17:32.828Z,11.93
2022-09-10T18:20:53.005Z,11.70
2022-09-10T18:23:57.056Z,12.03
2022-09-10T18:27:04.200Z,11.90
2022-09-10T18:30:06.705Z,12.63
2022-09-10T18:33:10.616Z,11.97
2022-09-10T18:36:15.256Z,12.17
2022-09-10T18:39:16.952Z,11.47
2022-09-10T18:42:18.595Z,12.20
2022-09-10T18:45:20.412Z,12.07
2022-09-10T18:48:22.271Z,11.07
2022-09-10T18:51:26.415Z,12.10
2022-09-10T18:54:31.685Z,11.53
2022-09-10T18:57:33.322Z,11.77
2022-09-10T19:00:34.948Z,11.30
2022-09-10T19:03:42.952Z,11.77
2022-09-10T19:06:46.793Z,11.30
2022-09-10T19:09:48.442Z,10.90
2022-09-10T19:12:50.152Z,11.57
2022-09-10T19:15:56.455Z,10.97
2022-09-10T19:19:00.640Z,10.80
2022-09-10T19:22:07.068Z,10.50
2022-09-10T19:25:09.294Z,10.73
2022-09-10T19:28:11.027Z,9.67
2022-09-10T19:31:15.825Z,11.43
2022-09-10T19:34:19.256Z,10.63
2022-09-10T19:37:21.065Z,10.20
2022-09-10T19:40:22.766Z,11.67
2022-09-10T19:43:24.905Z,11.43
2022-09-10T19:46:28.310Z,10.47
2022-09-10T19:49:30.129Z,11.27
2022-09-10T19:52:32.606Z,9.53
2022-09-10T19:55:34.824Z,11.63
2022-09-10T19:58:37.407Z,10.33
2022-09-10T20:01:41.253Z,10.83
2022-09-10T20:04:43.460Z,10.47
2022-09-10T20:07:45.153Z,10.40
2022-09-10T20:10:51.792Z,11.23
2022-09-10T20:13:56.155Z,10.17
2022-09-10T20:16:57.852Z,12.07
2022-09-10T20:19:59.800Z,11.30
2022-09-10T20:23:01.539Z,11.13
2022-09-10T20:26:22.497Z,12.67
2022-09-10T20:34:21.752Z,10.90
2022-09-10T20:37:24.840Z,11.47
2022-09-10T20:40:26.505Z,12.20
2022-09-10T20:43:29.574Z,11.20
2022-09-10T20:46:32.245Z,10.67
2022-09-10T20:49:33.976Z,11.27
2022-09-10T20:52:37.545Z,10.50
2022-09-10T20:55:39.201Z,11.80
2022-09-10T20:58:41.499Z,10.27
2022-09-10T21:01:45.775Z,10.30
2022-09-10T21:04:47.654Z,11.17
2022-09-10T21:07:50.453Z,9.37
2022-09-10T21:15:40.204Z,9.73
2022-09-10T21:18:42.670Z,10.07
2022-09-10T21:21:45.985Z,9.90
2022-09-10T21:24:47.635Z,10.03
2022-09-10T21:27:49.298Z,10.07
2022-09-10T21:30:50.963Z,10.83
2022-09-10T21:33:54.767Z,9.93
2022-09-10T21:36:56.466Z,8.80
2022-09-10T21:44:22.907Z,9.23
2022-09-10T21:47:24.589Z,11.03
2022-09-10T21:50:27.016Z,12.07
2022-09-10T21:53:28.688Z,11.30
2022-09-10T21:56:30.617Z,11.00
2022-09-10T21:59:32.301Z,10.70
2022-09-10T22:02:35.314Z,10.83
2022-09-10T22:05:38.151Z,10.73
2022-09-10T22:08:42.800Z,12.27
2022-09-10T22:11:47.089Z,12.70
2022-09-10T22:14:48.723Z,12.23
2022-09-10T22:17:50.557Z,12.40
2022-09-10T22:21:00.693Z,12.23
2022-09-10T22:24:02.602Z,12.40
2022-09-10T22:27:04.321Z,12.27
2022-09-10T22:30:06.369Z,12.00
2022-09-10T22:33:08.291Z,11.53
2022-09-10T22:36:18.567Z,12.43
2022-09-10T22:39:21.454Z,12.03
2022-09-10T22:42:23.201Z,12.47
2022-09-10T22:45:24.956Z,12.43
2022-09-10T22:48:27.446Z,13.60
2022-09-10T22:56:18.503Z,12.30
2022-09-10T22:59:45.001Z,11.17
2022-09-10T23:02:47.765Z,11.50
2022-09-10T23:05:49.883Z,12.37
2022-09-10T23:09:38.215Z,13.43
2022-09-10T23:13:39.598Z,13.17
2022-09-10T23:16:43.845Z,13.80
2022-09-10T23:19:45.498Z,14.00
2022-09-10T23:22:48.598Z,14.90
2022-09-10T23:25:50.344Z,14.03
2022-09-10T23:28:52.564Z,14.03
2022-09-10T23:31:54.262Z,12.53
2022-09-10T23:34:56.103Z,12.03
2022-09-10T23:37:57.750Z,12.57
2022-09-10T23:41:00.127Z,12.93
2022-09-10T23:44:02.016Z,11.73
2022-09-10T23:47:03.810Z,13.07
2022-09-10T23:50:07.721Z,12.93
2022-09-10T23:57:58.833Z,11.67
